createdAt,value
2023-03-21T00:01:59.940Z,99156.13
2023-03-21T00:04:37.958Z,99148.86
2023-03-21T00:07:13.340Z,99144.45
2023-03-21T00:09:41.875Z,99143.37
2023-03-21T00:12:11.868Z,99139.08
2023-03-21T00:14:41.211Z,99143.46
2023-03-21T00:17:11.081Z,99139.70
2023-03-21T00:19:41.505Z,99139.05
2023-03-21T00:22:10.152Z,99136.52
2023-03-21T00:24:39.382Z,99134.71
2023-03-21T00:27:34.583Z,99137.69
2023-03-21T00:29:57.066Z,99131.27
2023-03-21T00:32:27.213Z,99129.96
2023-03-21T00:35:16.372Z,99133.41
2023-03-21T00:37:49.148Z,99132.87
2023-03-21T00:40:26.653Z,99134.02
2023-03-21T00:42:57.654Z,99129.48
2023-03-21T00:45:28.128Z,99127.20
2023-03-21T00:47:56.864Z,99126.83
2023-03-21T00:50:26.169Z,99121.48
2023-03-21T00:52:56.203Z,99119.23
2023-03-21T00:55:28.286Z,99118.73
2023-03-21T00:58:02.202Z,99119.56
2023-03-21T01:00:33.181Z,99114.59
2023-03-21T01:03:21.459Z,99109.34
2023-03-21T01:06:05.892Z,99113.85
2023-03-21T01:08:51.681Z,99109.97
2023-03-21T01:11:25.600Z,99106.86
2023-03-21T01:14:04.041Z,99105.61
2023-03-21T01:16:37.474Z,99105.86
2023-03-21T01:19:14.852Z,99100.94
2023-03-21T01:21:50.692Z,99092.90
2023-03-21T01:24:19.100Z,99092.41
2023-03-21T01:26:47.650Z,99088.73
2023-03-21T01:29:16.328Z,99091.04
2023-03-21T01:31:44.731Z,99086.39
2023-03-21T01:34:13.376Z,99088.16
2023-03-21T01:37:02.254Z,99086.14
2023-03-21T01:39:35.101Z,99084.95
2023-03-21T01:42:03.497Z,99082.30
2023-03-21T01:44:32.361Z,99078.18
2023-03-21T01:47:10.898Z,99078.04
2023-03-21T01:50:09.938Z,99078.23
2023-03-21T01:52:50.233Z,99072.95
2023-03-21T01:55:26.072Z,99069.10
2023-03-21T01:58:06.393Z,99067.59
2023-03-21T02:00:57.069Z,99069.07
2023-03-21T02:03:38.717Z,99068.59
2023-03-21T02:06:38.460Z,99064.08
2023-03-21T02:09:18.716Z,99059.95
2023-03-21T02:11:51.163Z,99051.92
2023-03-21T02:14:28.875Z,99054.40
2023-03-21T02:17:24.902Z,99056.30
2023-03-21T02:20:25.697Z,99054.02
2023-03-21T02:23:14.471Z,99052.45
2023-03-21T02:25:51.848Z,99050.15
2023-03-21T02:28:36.908Z,99044.77
2023-03-21T02:31:23.658Z,99044.33
2023-03-21T02:33:55.429Z,99041.28
2023-03-21T02:36:49.544Z,99038.55
2023-03-21T02:39:51.068Z,99037.03
2023-03-21T02:42:26.953Z,99034.14
2023-03-21T02:45:11.785Z,99037.81
2023-03-21T02:47:49.844Z,99040.48
2023-03-21T02:50:33.566Z,99036.25
2023-03-21T02:53:04.188Z,99034.14
2023-03-21T02:55:35.199Z,99031.20
2023-03-21T02:58:13.467Z,99036.25
2023-03-21T03:00:49.705Z,99037.22
2023-03-21T03:03:34.603Z,99036.60
2023-03-21T03:06:20.909Z,99039.02
2023-03-21T03:09:14.292Z,99035.98
2023-03-21T03:11:47.084Z,99034.23
2023-03-21T03:15:00.220Z,99035.73
2023-03-21T03:17:46.847Z,99037.33
2023-03-21T03:20:21.139Z,99037.48
2023-03-21T03:23:08.233Z,99040.19
2023-03-21T03:26:00.925Z,99040.80
2023-03-21T03:28:35.628Z,99036.59
2023-03-21T03:31:10.265Z,99036.70
2023-03-21T03:33:48.305Z,99035.84
2023-03-21T03:36:31.101Z,99036.52
2023-03-21T03:39:05.945Z,99033.64
2023-03-21T03:42:05.832Z,99030.02
2023-03-21T03:44:38.228Z,99030.65
2023-03-21T03:47:37.941Z,99030.66
2023-03-21T03:50:13.382Z,99028.04
2023-03-21T03:52:57.375Z,99022.84
2023-03-21T03:55:34.637Z,99019.86
2023-03-21T03:58:23.197Z,99017.23
2023-03-21T04:00:55.190Z,99013.82
2023-03-21T04:03:24.615Z,99013.17
2023-03-21T04:05:54.248Z,99019.13
2023-03-21T04:08:23.524Z,99019.31
2023-03-21T04:10:54.857Z,99017.00
2023-03-21T04:13:24.389Z,99021.92
2023-03-21T04:16:19.541Z,99019.08
2023-03-21T04:18:49.302Z,99021.45
2023-03-21T04:21:21.768Z,99020.88
2023-03-21T04:23:51.182Z,99021.77
2023-03-21T04:26:24.676Z,99026.10
2023-03-21T04:29:13.565Z,99024.95
2023-03-21T04:32:16.525Z,99024.00
2023-03-21T04:34:50.305Z,99024.73
2023-03-21T04:37:23.888Z,99027.08
2023-03-21T04:39:52.704Z,99031.73
2023-03-21T04:42:21.353Z,99029.90
2023-03-21T04:44:51.669Z,99029.02
2023-03-21T04:47:20.633Z,99032.07
2023-03-21T04:49:51.863Z,99030.61
2023-03-21T04:52:20.446Z,99037.54
2023-03-21T04:54:48.932Z,99042.33
2023-03-21T04:57:18.037Z,99038.28
2023-03-21T04:59:46.964Z,99039.32
2023-03-21T05:02:16.512Z,99038.98
2023-03-21T05:04:44.944Z,99038.36
2023-03-21T05:07:13.432Z,99036.10
2023-03-21T05:09:41.796Z,99037.34
2023-03-21T05:12:10.340Z,99041.72
2023-03-21T05:14:38.976Z,99046.98
2023-03-21T05:17:08.512Z,99043.56
2023-03-21T05:19:40.712Z,99041.52
2023-03-21T05:22:11.204Z,99038.98
2023-03-21T05:24:42.147Z,99039.73
2023-03-21T05:27:26.315Z,99042.39
2023-03-21T05:29:56.820Z,99046.98
2023-03-21T05:32:25.099Z,99049.81
2023-03-21T05:34:53.712Z,99049.79
2023-03-21T05:37:24.769Z,99050.02
2023-03-21T05:39:53.096Z,99053.27
2023-03-21T05:42:29.774Z,99048.82
2023-03-21T05:44:58.481Z,99049.73
2023-03-21T05:47:33.442Z,99048.47
2023-03-21T05:50:02.785Z,99049.69
2023-03-21T05:52:33.179Z,99051.29
2023-03-21T05:55:03.992Z,99053.25
2023-03-21T05:57:35.472Z,99049.80
2023-03-21T06:00:08.614Z,99048.87
2023-03-21T06:02:45.901Z,99047.03
2023-03-21T06:05:43.137Z,99044.13
2023-03-21T06:08:16.994Z,99047.73
2023-03-21T06:10:53.119Z,99044.20
2023-03-21T06:13:22.353Z,99041.52
2023-03-21T06:15:55.274Z,99043.83
2023-03-21T06:18:28.183Z,99043.51
2023-03-21T06:21:15.413Z,99046.03
2023-03-21T06:23:43.640Z,99047.48
2023-03-21T06:26:13.480Z,99043.02
2023-03-21T06:28:42.596Z,99042.60
2023-03-21T06:31:11.466Z,99042.05
2023-03-21T06:33:40.775Z,99047.16
2023-03-21T06:36:09.622Z,99048.20
2023-03-21T06:38:39.939Z,99047.82
2023-03-21T06:41:09.247Z,99042.48
2023-03-21T06:43:49.289Z,99042.16
2023-03-21T06:46:19.028Z,99044.83
2023-03-21T06:48:47.484Z,99045.02
2023-03-21T06:51:18.721Z,99044.95
2023-03-21T06:54:04.497Z,99041.77
2023-03-21T06:56:56.947Z,99040.66
2023-03-21T06:59:31.369Z,99036.15
2023-03-21T07:02:06.117Z,99039.92
2023-03-21T07:04:38.416Z,99040.66
2023-03-21T07:07:07.389Z,99036.40
2023-03-21T07:09:36.983Z,99033.73
2023-03-21T07:12:06.748Z,99030.91
2023-03-21T07:14:45.445Z,99026.64
2023-03-21T07:17:17.273Z,99027.02
2023-03-21T07:19:45.648Z,99026.71
2023-03-21T07:22:15.423Z,99029.46
2023-03-21T07:25:02.303Z,99023.90
2023-03-21T07:27:34.823Z,99027.69
2023-03-21T07:30:05.949Z,99028.05
2023-03-21T07:32:38.136Z,99025.46
2023-03-21T07:35:09.612Z,99019.35
2023-03-21T07:37:39.740Z,99025.04
2023-03-21T07:40:10.360Z,99020.13
2023-03-21T07:42:41.053Z,99019.95
2023-03-21T07:45:11.425Z,99024.20
2023-03-21T07:47:40.053Z,99028.64
2023-03-21T07:50:08.812Z,99032.77
2023-03-21T07:52:37.171Z,99029.79
2023-03-21T07:55:06.650Z,99027.09
2023-03-21T07:57:35.959Z,99028.60
2023-03-21T08:00:06.856Z,99027.92
2023-03-21T08:02:41.344Z,99024.41
2023-03-21T08:05:11.635Z,99024.34
2023-03-21T08:07:40.786Z,99023.59
2023-03-21T08:10:10.879Z,99021.08
2023-03-21T08:12:46.758Z,99021.88
2023-03-21T08:15:16.367Z,99020.81
2023-03-21T08:17:47.520Z,99022.40
2023-03-21T08:20:23.550Z,99022.09
2023-03-21T08:22:52.700Z,99020.54
2023-03-21T08:25:21.980Z,99020.85
2023-03-21T08:27:51.639Z,99016.67
2023-03-21T08:30:23.212Z,99021.98
2023-03-21T08:32:51.693Z,99017.84
2023-03-21T08:35:20.672Z,99019.30
2023-03-21T10:39:55.311Z,98997.24
2023-03-21T10:42:30.899Z,98999.55
2023-03-21T10:44:59.866Z,99001.08
2023-03-21T10:47:29.976Z,98996.52
2023-03-21T10:50:13.117Z,98995.50
2023-03-21T10:52:48.284Z,98986.73
2023-03-21T10:55:18.263Z,98985.55
2023-03-21T10:57:46.845Z,98983.48
2023-03-21T11:00:34.881Z,98982.22
2023-03-21T11:03:05.220Z,98982.23
2023-03-21T11:05:39.190Z,98982.19
2023-03-21T11:08:10.662Z,98980.45
2023-03-21T11:10:59.199Z,98976.86
2023-03-21T11:13:42.217Z,98975.73
2023-03-21T11:16:09.403Z,98968.59
2023-03-21T11:18:44.039Z,98969.63
2023-03-21T11:21:15.849Z,98967.38
2023-03-21T11:23:47.345Z,98970.58
2023-03-21T11:26:27.240Z,98971.98
2023-03-21T11:28:55.444Z,98970.95
2023-03-21T11:31:38.309Z,98966.00
2023-03-21T11:34:08.422Z,98962.41
2023-03-21T11:36:41.081Z,98956.36
2023-03-21T11:39:24.341Z,98953.30
2023-03-21T11:41:52.248Z,98965.40
2023-03-21T11:44:42.582Z,98960.45
2023-03-21T11:47:12.558Z,98960.23
2023-03-21T11:49:39.865Z,98961.80
2023-03-21T11:52:38.129Z,98955.38
2023-03-21T11:55:23.752Z,98955.34
2023-03-21T11:58:05.307Z,98954.73
2023-03-21T12:00:54.334Z,98954.72
2023-03-21T12:03:49.038Z,98954.23
2023-03-21T12:06:41.093Z,98952.94
2023-03-21T12:09:20.297Z,98954.13
2023-03-21T12:12:07.142Z,98954.01
2023-03-21T12:14:44.988Z,98949.13
2023-03-21T12:17:25.757Z,98950.25
2023-03-21T12:20:01.415Z,98945.83
2023-03-21T12:22:49.387Z,98941.85
2023-03-21T12:25:44.778Z,98945.25
2023-03-21T12:28:33.234Z,98942.02
2023-03-21T12:31:39.273Z,98939.73
2023-03-21T12:34:25.619Z,98937.59
2023-03-21T12:36:55.479Z,98941.65
2023-03-21T12:39:35.514Z,98941.68
2023-03-21T12:42:17.981Z,98941.14
2023-03-21T12:44:53.774Z,98938.78
2023-03-21T12:47:27.421Z,98937.05
2023-03-21T12:50:16.637Z,98930.13
2023-03-21T12:52:57.018Z,98928.83
2023-03-21T12:55:33.005Z,98929.75
2023-03-21T12:58:17.702Z,98928.96
2023-03-21T13:00:47.078Z,98933.89
2023-03-21T13:03:37.487Z,98931.54
2023-03-21T13:06:10.749Z,98929.02
2023-03-21T13:08:46.923Z,98928.86
2023-03-21T13:11:19.235Z,98928.25
2023-03-21T13:14:19.719Z,98930.58
2023-03-21T13:17:01.289Z,98929.52
2023-03-21T13:19:55.589Z,98923.70
2023-03-21T13:22:30.119Z,98924.81
2023-03-21T13:25:16.270Z,98921.80
2023-03-21T13:27:46.731Z,98916.83
2023-03-21T13:30:32.827Z,98922.23
2023-03-21T13:33:37.481Z,98919.96
2023-03-21T13:36:08.424Z,98918.84
2023-03-21T13:38:39.538Z,98915.38
2023-03-21T13:41:17.125Z,98916.61
2023-03-21T13:43:52.552Z,98915.29
2023-03-21T13:46:25.665Z,98912.14
2023-03-21T13:48:58.467Z,98914.27
2023-03-21T13:51:29.445Z,98908.16
2023-03-21T13:54:11.161Z,98912.39
2023-03-21T13:56:47.569Z,98912.27
2023-03-21T13:59:18.622Z,98917.21
2023-03-21T14:02:08.932Z,98915.27
2023-03-21T14:04:42.029Z,98919.52
2023-03-21T14:07:23.019Z,98920.77
2023-03-21T14:09:53.617Z,98920.58
2023-03-21T14:12:34.448Z,98918.94
2023-03-21T14:15:16.217Z,98920.15
2023-03-21T14:18:06.450Z,98921.38
2023-03-21T14:20:43.245Z,98924.77
2023-03-21T14:23:15.459Z,98924.79
2023-03-21T14:25:47.715Z,98925.02
2023-03-21T14:28:23.530Z,98923.58
2023-03-21T14:30:57.277Z,98925.53
2023-03-21T14:33:30.964Z,98927.66
2023-03-21T14:36:02.449Z,98927.64
2023-03-21T14:38:36.215Z,98931.45
2023-03-21T14:41:05.065Z,98930.29
2023-03-21T14:43:37.805Z,98933.58
2023-03-21T14:46:06.101Z,98932.18
2023-03-21T14:48:34.822Z,98933.14
2023-03-21T14:51:05.766Z,98934.90
2023-03-21T14:53:39.424Z,98939.84
2023-03-21T14:56:10.983Z,98938.10
2023-03-21T14:58:45.011Z,98938.88
2023-03-21T15:01:34.189Z,98938.58
2023-03-21T15:04:04.964Z,98943.95
2023-03-21T15:06:35.233Z,98941.91
2023-03-21T15:09:04.933Z,98937.91
2023-03-21T15:11:37.900Z,98943.35
2023-03-21T15:14:07.880Z,98940.94
2023-03-21T15:16:35.917Z,98943.60
2023-03-21T15:19:04.734Z,98948.89
2023-03-21T15:21:37.810Z,98951.11
2023-03-21T15:24:16.587Z,98956.18
2023-03-21T15:26:49.225Z,98958.89
2023-03-21T15:29:17.937Z,98961.74
2023-03-21T15:31:48.159Z,98963.97
2023-03-21T15:34:27.043Z,98964.63
2023-03-21T15:37:01.162Z,98966.41
2023-03-21T15:39:30.593Z,98973.13
2023-03-21T15:42:02.491Z,98979.27
2023-03-21T15:44:30.404Z,98979.85
2023-03-21T15:46:57.545Z,98984.73
2023-03-21T15:49:31.883Z,98982.88
2023-03-21T15:52:05.178Z,98994.08
2023-03-21T15:54:47.476Z,98996.56
2023-03-21T15:57:33.577Z,98998.49
2023-03-21T16:00:19.319Z,98999.32
2023-03-21T16:02:48.908Z,99000.15
2023-03-21T16:05:23.448Z,99001.77
2023-03-21T16:07:50.646Z,99004.19
2023-03-21T16:10:31.738Z,99004.83
2023-03-21T16:12:59.079Z,99008.22
2023-03-21T16:15:26.623Z,99007.08
2023-03-21T16:17:58.154Z,99007.13
2023-03-21T16:20:28.395Z,99009.17
2023-03-21T16:22:55.624Z,99011.52
2023-03-21T16:25:22.713Z,99012.98
2023-03-21T16:27:51.122Z,99017.80
2023-03-21T16:30:20.728Z,99020.71
2023-03-21T16:32:51.425Z,99021.25
2023-03-21T16:35:22.320Z,99019.91
2023-03-21T16:37:50.357Z,99022.11
2023-03-21T16:40:37.402Z,99025.32
2023-03-21T16:43:05.250Z,99027.35
2023-03-21T16:45:32.346Z,99033.46
2023-03-21T16:48:00.171Z,99036.06
2023-03-21T16:50:31.336Z,99042.47
2023-03-21T16:52:59.742Z,99042.27
2023-03-21T16:55:27.400Z,99047.17
2023-03-21T16:57:56.880Z,99049.71
2023-03-21T17:00:27.328Z,99054.11
2023-03-21T17:02:56.259Z,99055.54
2023-03-21T17:05:30.037Z,99061.08
2023-03-21T17:08:01.579Z,99065.05
2023-03-21T17:10:30.922Z,99067.11
2023-03-21T17:12:58.524Z,99070.67
2023-03-21T17:15:25.726Z,99067.70
2023-03-21T17:17:55.212Z,99072.38
2023-03-21T17:20:31.495Z,99072.29
2023-03-21T17:23:00.483Z,99072.70
2023-03-21T17:25:27.922Z,99072.32
2023-03-21T17:27:55.865Z,99074.98
2023-03-21T17:30:32.858Z,99080.30
2023-03-21T17:33:01.726Z,99077.55
2023-03-21T17:35:29.016Z,99077.27
2023-03-21T17:37:57.953Z,99083.44
2023-03-21T17:40:30.754Z,99081.77
2023-03-21T17:42:58.940Z,99083.48
2023-03-21T17:45:26.566Z,99084.77
2023-03-21T17:47:54.359Z,99083.04
2023-03-21T17:50:30.753Z,99085.55
2023-03-21T17:52:58.119Z,99083.19
2023-03-21T17:55:27.698Z,99085.54
2023-03-21T17:57:55.046Z,99085.36
2023-03-21T18:00:29.967Z,99086.06
2023-03-21T18:02:57.847Z,99089.11
2023-03-21T18:05:26.027Z,99090.77
2023-03-21T18:08:09.893Z,99086.77
2023-03-21T18:10:41.168Z,99092.81
2023-03-21T18:13:09.253Z,99095.88
2023-03-21T18:15:44.129Z,99096.04
2023-03-21T18:18:14.120Z,99097.09
2023-03-21T18:20:58.367Z,99098.48
2023-03-21T18:23:26.087Z,99100.45
2023-03-21T18:25:53.309Z,99101.05
2023-03-21T18:28:26.929Z,99101.66
2023-03-21T18:31:08.525Z,99103.05
2023-03-21T18:33:39.831Z,99105.94
2023-03-21T18:36:13.602Z,99110.20
2023-03-21T18:38:42.233Z,99105.66
2023-03-21T18:41:13.297Z,99107.73
2023-03-21T18:46:32.737Z,99114.44
2023-03-21T18:49:19.999Z,99113.09
2023-03-21T18:51:47.377Z,99120.08
2023-03-21T18:54:14.722Z,99117.11
2023-03-21T18:59:34.172Z,99117.75
2023-03-21T19:02:03.435Z,99116.98
2023-03-21T19:04:30.733Z,99117.55
2023-03-21T19:06:59.023Z,99118.07
2023-03-21T19:09:31.326Z,99120.96
2023-03-21T19:12:00.862Z,99123.64
2023-03-21T19:14:29.432Z,99128.91
2023-03-21T19:19:47.401Z,99133.91
2023-03-21T19:22:16.295Z,99129.76
2023-03-21T19:24:43.486Z,99125.09
2023-03-21T19:27:10.680Z,99131.54
2023-03-21T19:29:37.815Z,99129.01
2023-03-21T19:32:06.177Z,99128.79
2023-03-21T19:34:33.626Z,99137.30
2023-03-21T19:37:00.578Z,99138.06
2023-03-21T19:39:30.274Z,99139.77
2023-03-21T19:42:13.425Z,99138.64
2023-03-21T19:44:43.001Z,99137.73
2023-03-21T19:47:10.753Z,99138.45
2023-03-21T19:50:20.833Z,99137.27
2023-03-21T19:52:27.396Z,99134.66
2023-03-21T19:54:54.256Z,99133.45
2023-03-21T19:57:24.953Z,99136.14
2023-03-21T19:59:53.982Z,99133.89
2023-03-21T20:02:34.975Z,99131.00
2023-03-21T20:05:04.339Z,99133.78
2023-03-21T20:07:32.260Z,99132.36
2023-03-21T20:09:59.376Z,99133.61
2023-03-21T20:12:28.178Z,99133.70
2023-03-21T20:15:10.410Z,99135.84
2023-03-21T20:17:43.682Z,99137.83
2023-03-21T20:20:18.386Z,99133.96
2023-03-21T20:25:41.917Z,99135.79
2023-03-21T20:28:24.611Z,99134.83
2023-03-21T20:31:00.044Z,99130.63
2023-03-21T20:33:28.184Z,99132.43
2023-03-21T20:38:51.837Z,99132.12
2023-03-21T20:41:19.041Z,99133.55
2023-03-21T20:44:34.341Z,99136.52
2023-03-21T20:46:37.596Z,99136.06
2023-03-21T20:49:08.868Z,99135.94
2023-03-21T20:54:23.818Z,99138.30
2023-03-21T20:56:56.168Z,99141.71
2023-03-21T20:59:27.522Z,99142.80
2023-03-21T21:01:58.946Z,99143.84
2023-03-21T21:04:46.977Z,99145.36
2023-03-21T21:07:19.697Z,99147.02
2023-03-21T21:09:53.336Z,99147.52
2023-03-21T21:12:26.960Z,99150.27
2023-03-21T21:14:58.075Z,99149.13
2023-03-21T21:18:01.644Z,99153.60
2023-03-21T21:20:19.878Z,99153.70
2023-03-21T21:22:58.941Z,99153.63
2023-03-21T21:25:31.441Z,99156.84
2023-03-21T21:28:01.139Z,99155.94
2023-03-21T21:30:34.729Z,99162.52
2023-03-21T21:33:04.848Z,99162.36
2023-03-21T21:35:35.889Z,99160.11
2023-03-21T21:38:03.169Z,99165.55
2023-03-21T21:40:30.138Z,99162.27
2023-03-21T21:43:06.437Z,99164.06
2023-03-21T21:45:37.458Z,99167.55
2023-03-21T21:48:05.438Z,99171.28
2023-03-21T21:50:33.452Z,99174.39
2023-03-21T21:53:03.305Z,99172.44
2023-03-21T21:55:33.668Z,99177.64
2023-03-21T21:58:03.787Z,99174.39
2023-03-21T22:00:32.166Z,99174.06
2023-03-21T22:03:00.199Z,99173.22
2023-03-21T22:05:27.870Z,99173.64
2023-03-21T22:07:57.736Z,99175.77
2023-03-21T22:10:27.026Z,99180.33
2023-03-21T22:12:54.071Z,99182.59
2023-03-21T22:15:28.258Z,99181.12
2023-03-21T22:17:57.853Z,99181.41
2023-03-21T22:20:25.003Z,99177.81
2023-03-21T22:23:00.336Z,99182.59
2023-03-21T22:25:28.283Z,99182.27
2023-03-21T22:27:55.251Z,99184.95
2023-03-21T22:30:22.064Z,99185.58
2023-03-21T22:33:06.192Z,99185.36
2023-03-21T22:35:36.840Z,99181.23
2023-03-21T22:38:04.430Z,99182.68
2023-03-21T22:40:31.482Z,99184.39
2023-03-21T22:42:59.478Z,99181.39
2023-03-21T22:45:27.054Z,99177.20
2023-03-21T22:47:54.569Z,99177.93
2023-03-21T22:50:22.207Z,99178.00
2023-03-21T22:52:52.577Z,99181.28
2023-03-21T22:55:24.364Z,99185.90
2023-03-21T22:57:51.905Z,99188.56
2023-03-21T23:00:19.646Z,99185.10
2023-03-21T23:02:48.031Z,99185.31
2023-03-21T23:05:15.280Z,99187.67
2023-03-21T23:07:44.314Z,99185.98
2023-03-21T23:10:12.553Z,99185.69
2023-03-21T23:12:40.164Z,99183.31
2023-03-21T23:15:09.678Z,99186.48
2023-03-21T23:17:37.509Z,99186.74
2023-03-21T23:20:07.996Z,99185.33
2023-03-21T23:22:39.806Z,99189.38
2023-03-21T23:25:08.774Z,99191.76
2023-03-21T23:27:35.709Z,99191.05
2023-03-21T23:30:07.290Z,99190.13
2023-03-21T23:32:34.462Z,99184.75
2023-03-21T23:35:12.836Z,99182.84
2023-03-21T23:37:49.503Z,99179.46
2023-03-21T23:40:16.523Z,99178.60
2023-03-21T23:42:44.004Z,99171.58
2023-03-21T23:45:11.056Z,99173.44
2023-03-21T23:47:42.829Z,99170.20
2023-03-21T23:50:10.657Z,99173.18
2023-03-21T23:52:44.160Z,99173.34
2023-03-21T23:55:11.436Z,99172.14
2023-03-21T23:57:41.212Z,99171.86
